createdAt,value
2023-05-10T00:00:32.626Z,52.32
2023-05-10T00:02:59.270Z,52.28
2023-05-10T00:05:25.920Z,52.26
2023-05-10T00:07:52.480Z,51.84
2023-05-10T00:10:19.169Z,52.83
2023-05-10T00:12:45.885Z,52.76
2023-05-10T00:15:12.486Z,52.64
2023-05-10T00:17:39.065Z,53.18
2023-05-10T00:20:06.321Z,52.96
2023-05-10T00:22:33.169Z,53.48
2023-05-10T00:25:00.370Z,53.24
2023-05-10T00:27:26.955Z,53.40
2023-05-10T00:29:53.488Z,54.04
2023-05-10T00:32:20.095Z,53.61
2023-05-10T00:34:46.664Z,54.08
2023-05-10T00:37:13.177Z,53.33
2023-05-10T00:39:39.669Z,53.89
2023-05-10T00:42:06.218Z,54.19
2023-05-10T00:44:32.781Z,54.05
2023-05-10T00:47:00.321Z,54.70
2023-05-10T00:49:27.100Z,54.55
2023-05-10T00:51:53.927Z,54.92
2023-05-10T00:54:20.598Z,54.37
2023-05-10T00:56:49.877Z,53.85
2023-05-10T00:59:18.099Z,54.42
2023-05-10T01:01:45.996Z,54.46
2023-05-10T01:04:16.205Z,54.56
2023-05-10T01:06:43.458Z,53.93
2023-05-10T01:09:10.980Z,54.25
2023-05-10T01:11:39.565Z,54.61
2023-05-10T01:14:07.051Z,54.56
2023-05-10T01:16:38.153Z,54.81
2023-05-10T01:19:19.627Z,54.99
2023-05-10T01:21:55.443Z,55.24
2023-05-10T01:24:43.409Z,55.66
2023-05-10T01:27:53.910Z,55.84
2023-05-10T01:30:45.235Z,55.56
2023-05-10T01:33:40.943Z,55.29
2023-05-10T01:36:26.985Z,55.75
2023-05-10T01:39:04.554Z,56.17
2023-05-10T01:41:39.240Z,55.95
2023-05-10T01:44:17.650Z,56.50
2023-05-10T01:46:44.265Z,56.47
2023-05-10T01:49:20.826Z,57.21
2023-05-10T01:51:52.413Z,57.70
2023-05-10T01:54:21.283Z,57.50
2023-05-10T01:56:53.636Z,57.81
2023-05-10T01:59:20.974Z,58.22
2023-05-10T02:01:49.839Z,57.88
2023-05-10T02:04:18.132Z,57.31
2023-05-10T02:06:48.915Z,57.96
2023-05-10T02:09:16.760Z,58.13
2023-05-10T02:11:45.198Z,57.10
2023-05-10T02:14:12.532Z,57.53
2023-05-10T02:16:40.758Z,58.13
2023-05-10T02:19:09.511Z,58.13
2023-05-10T02:21:36.902Z,57.78
2023-05-10T02:24:05.231Z,58.39
2023-05-10T02:26:34.008Z,58.65
2023-05-10T02:29:04.384Z,58.44
2023-05-10T02:31:34.183Z,58.65
2023-05-10T02:34:02.500Z,57.99
2023-05-10T02:36:30.359Z,57.82
2023-05-10T02:38:58.486Z,57.93
2023-05-10T02:41:27.346Z,57.79
2023-05-10T02:43:58.251Z,58.95
2023-05-10T02:46:24.994Z,59.15
2023-05-10T02:48:51.595Z,59.25
2023-05-10T02:51:20.709Z,59.09
2023-05-10T02:53:50.175Z,60.04
2023-05-10T02:56:29.811Z,60.64
2023-05-10T02:58:56.538Z,59.90
2023-05-10T03:01:23.347Z,59.64
2023-05-10T03:03:49.904Z,60.07
2023-05-10T03:06:17.373Z,60.40
2023-05-10T03:08:45.370Z,60.52
2023-05-10T03:11:40.113Z,60.95
2023-05-10T03:14:18.902Z,61.47
2023-05-10T03:16:57.802Z,62.47
2023-05-10T03:19:31.213Z,60.62
2023-05-10T03:22:03.157Z,61.36
2023-05-10T03:24:31.010Z,62.22
2023-05-10T03:27:03.834Z,61.80
2023-05-10T03:29:31.776Z,61.85
2023-05-10T03:32:01.432Z,62.18
2023-05-10T03:34:30.814Z,61.29
2023-05-10T03:36:57.403Z,61.12
2023-05-10T03:39:23.978Z,61.15
2023-05-10T03:41:50.524Z,62.54
2023-05-10T03:44:17.403Z,61.49
2023-05-10T03:46:44.109Z,60.60
2023-05-10T03:49:10.685Z,61.82
2023-05-10T03:51:37.352Z,61.79
2023-05-10T03:54:04.035Z,61.72
2023-05-10T03:56:31.059Z,62.57
2023-05-10T03:58:57.577Z,62.44
2023-05-10T04:01:24.124Z,62.79
2023-05-10T04:03:50.801Z,61.53
2023-05-10T04:06:17.463Z,61.79
2023-05-10T04:08:44.076Z,62.15
2023-05-10T04:11:12.502Z,62.52
2023-05-10T04:13:39.511Z,62.92
2023-05-10T04:16:06.367Z,62.94
2023-05-10T04:18:32.998Z,62.36
2023-05-10T04:20:59.613Z,62.07
2023-05-10T04:23:26.173Z,62.54
2023-05-10T04:25:52.686Z,61.49
2023-05-10T04:28:19.337Z,62.38
2023-05-10T04:30:46.677Z,63.48
2023-05-10T04:33:13.211Z,61.84
2023-05-10T04:35:41.038Z,62.73
2023-05-10T04:38:07.850Z,61.60
2023-05-10T04:40:35.204Z,61.25
2023-05-10T04:43:01.729Z,61.87
2023-05-10T04:45:28.270Z,60.98
2023-05-10T04:47:54.852Z,61.25
2023-05-10T04:50:21.395Z,60.19
2023-05-10T04:52:47.922Z,59.96
2023-05-10T04:55:14.714Z,59.32
2023-05-10T04:57:41.309Z,60.03
2023-05-10T05:00:08.366Z,60.89
2023-05-10T05:02:34.988Z,60.58
2023-05-10T05:05:01.555Z,59.60
2023-05-10T05:07:28.141Z,59.13
2023-05-10T05:09:54.657Z,59.32
2023-05-10T05:12:21.175Z,58.57
2023-05-10T05:14:47.673Z,58.11
2023-05-10T05:17:14.237Z,58.27
2023-05-10T05:19:41.019Z,58.20
2023-05-10T05:22:09.180Z,57.72
2023-05-10T05:24:37.517Z,57.96
2023-05-10T05:27:04.057Z,58.47
2023-05-10T05:29:30.752Z,57.35
2023-05-10T05:31:57.321Z,57.77
2023-05-10T05:34:24.002Z,57.60
2023-05-10T05:36:50.802Z,57.14
2023-05-10T05:39:17.375Z,56.51
2023-05-10T05:41:44.501Z,56.89
2023-05-10T05:44:11.066Z,56.77
2023-05-10T05:46:37.611Z,55.84
2023-05-10T05:49:04.138Z,56.33
2023-05-10T05:51:30.657Z,56.89
2023-05-10T05:53:57.169Z,56.86
2023-05-10T05:56:26.330Z,56.36
2023-05-10T05:58:52.921Z,55.54
2023-05-10T06:01:19.663Z,55.87
2023-05-10T06:03:46.302Z,56.48
2023-05-10T06:06:13.542Z,56.49
2023-05-10T06:08:40.075Z,54.87
2023-05-10T06:11:08.098Z,54.99
2023-05-10T06:13:36.263Z,54.56
2023-05-10T06:16:03.892Z,54.77
2023-05-10T06:18:30.484Z,55.77
2023-05-10T06:20:57.123Z,55.91
2023-05-10T06:23:23.700Z,54.69
2023-05-10T06:25:50.237Z,54.47
2023-05-10T06:28:16.826Z,54.33
2023-05-10T06:30:43.646Z,55.40
2023-05-10T06:33:10.274Z,54.36
2023-05-10T06:35:37.800Z,54.13
2023-05-10T06:38:04.426Z,55.29
2023-05-10T06:40:31.007Z,54.14
2023-05-10T06:42:57.566Z,54.40
2023-05-10T06:45:24.075Z,53.81
2023-05-10T06:47:50.675Z,53.65
2023-05-10T06:50:17.279Z,54.25
2023-05-10T06:52:44.136Z,53.36
2023-05-10T06:55:11.110Z,53.50
2023-05-10T06:57:37.724Z,52.00
2023-05-10T07:00:07.890Z,52.01
2023-05-10T07:02:34.567Z,52.42
2023-05-10T07:05:15.404Z,51.53
2023-05-10T07:07:42.125Z,52.21
2023-05-10T07:10:09.008Z,51.60
2023-05-10T07:12:35.618Z,51.82
2023-05-10T07:15:02.368Z,50.96
2023-05-10T07:17:28.986Z,51.45
2023-05-10T07:19:55.615Z,50.40
2023-05-10T07:22:22.140Z,51.29
2023-05-10T07:24:48.709Z,49.89
2023-05-10T07:27:15.367Z,51.08
2023-05-10T07:29:41.974Z,51.97
2023-05-10T07:32:08.609Z,50.96
2023-05-10T07:34:35.274Z,51.72
2023-05-10T07:37:02.089Z,50.34
2023-05-10T07:39:28.923Z,50.98
2023-05-10T07:41:56.455Z,50.05
2023-05-10T07:44:23.379Z,50.52
2023-05-10T07:46:50.080Z,50.45
2023-05-10T07:49:17.556Z,50.13
2023-05-10T07:51:44.330Z,50.19
2023-05-10T07:54:10.923Z,49.93
2023-05-10T07:56:37.447Z,50.60
2023-05-10T07:59:09.300Z,49.72
2023-05-10T08:01:36.887Z,49.55
2023-05-10T08:04:03.558Z,49.31
2023-05-10T08:06:31.192Z,49.70
2023-05-10T08:08:58.120Z,49.08
2023-05-10T08:11:24.666Z,49.55
2023-05-10T08:13:52.116Z,49.21
2023-05-10T08:16:18.974Z,48.59
2023-05-10T08:18:47.744Z,48.72
2023-05-10T08:21:15.381Z,49.19
2023-05-10T08:23:42.018Z,49.24
2023-05-10T08:26:08.577Z,48.72
2023-05-10T08:28:35.111Z,48.39
2023-05-10T08:31:01.634Z,48.54
2023-05-10T08:33:28.172Z,48.00
2023-05-10T08:35:54.751Z,48.17
2023-05-10T08:38:21.299Z,49.19
2023-05-10T08:40:51.785Z,48.68
2023-05-10T08:43:19.207Z,48.68
2023-05-10T08:45:48.014Z,48.33
2023-05-10T08:48:14.985Z,48.08
2023-05-10T08:50:43.045Z,48.40
2023-05-10T08:53:14.431Z,47.32
2023-05-10T08:55:43.791Z,48.45
2023-05-10T08:58:10.582Z,48.13
2023-05-10T09:00:40.737Z,47.08
2023-05-10T09:03:08.108Z,47.62
2023-05-10T09:05:34.870Z,46.91
2023-05-10T09:08:04.225Z,47.21
2023-05-10T09:10:31.918Z,46.66
2023-05-10T09:12:59.614Z,46.89
2023-05-10T09:15:26.931Z,47.05
2023-05-10T09:17:53.881Z,47.12
2023-05-10T09:20:21.427Z,47.37
2023-05-10T09:22:48.371Z,47.55
2023-05-10T09:25:16.729Z,46.91
2023-05-10T09:27:48.661Z,46.27
2023-05-10T09:30:33.042Z,45.71
2023-05-10T09:33:00.681Z,46.46
2023-05-10T09:35:31.178Z,46.38
2023-05-10T09:38:01.368Z,46.53
2023-05-10T09:40:29.704Z,45.59
2023-05-10T09:43:00.307Z,47.21
2023-05-10T09:45:29.054Z,47.07
2023-05-10T09:47:56.481Z,46.64
2023-05-10T09:50:24.138Z,46.54
2023-05-10T09:52:59.414Z,45.97
2023-05-10T09:55:40.806Z,45.77
2023-05-10T09:58:11.392Z,45.42
2023-05-10T10:00:41.178Z,46.47
2023-05-10T10:03:14.022Z,46.53
2023-05-10T10:05:42.735Z,45.55
2023-05-10T10:08:09.449Z,43.58
2023-05-10T10:10:36.333Z,44.12
2023-05-10T10:13:03.853Z,44.86
2023-05-10T10:15:30.588Z,43.46
2023-05-10T10:17:57.186Z,43.94
2023-05-10T10:20:24.277Z,43.46
2023-05-10T10:22:51.495Z,43.28
2023-05-10T10:25:20.035Z,44.30
2023-05-10T10:27:52.649Z,42.38
2023-05-10T10:30:43.542Z,43.20
2023-05-10T10:33:20.175Z,42.59
2023-05-10T10:35:55.361Z,43.33
2023-05-10T10:38:21.975Z,44.22
2023-05-10T10:40:48.981Z,43.88
2023-05-10T10:43:22.955Z,45.36
2023-05-10T10:46:18.563Z,43.20
2023-05-10T10:48:50.841Z,42.86
2023-05-10T10:51:17.622Z,44.03
2023-05-10T10:53:44.668Z,41.62
2023-05-10T10:56:14.505Z,42.10
2023-05-10T10:58:41.865Z,42.05
2023-05-10T11:01:16.600Z,40.73
2023-05-10T11:04:16.090Z,42.78
2023-05-10T11:06:43.478Z,40.87
2023-05-10T11:09:12.609Z,41.80
2023-05-10T11:11:59.415Z,41.83
2023-05-10T11:14:26.813Z,42.27
2023-05-10T11:16:53.614Z,42.15
2023-05-10T11:19:20.731Z,40.89
2023-05-10T11:21:47.584Z,41.80
2023-05-10T11:24:16.207Z,41.63
2023-05-10T11:26:43.258Z,42.31
2023-05-10T11:29:10.042Z,42.73
2023-05-10T11:31:44.781Z,42.16
2023-05-10T11:34:12.022Z,41.66
2023-05-10T11:36:38.630Z,42.07
2023-05-10T11:39:06.025Z,43.34
2023-05-10T11:41:32.874Z,42.49
2023-05-10T11:43:59.857Z,41.73
2023-05-10T11:46:28.536Z,42.80
2023-05-10T11:48:58.879Z,41.73
2023-05-10T11:51:26.255Z,41.75
2023-05-10T11:53:57.233Z,40.17
2023-05-10T11:56:24.504Z,39.61
2023-05-10T11:58:58.450Z,38.62
2023-05-10T12:01:27.420Z,39.93
2023-05-10T12:03:54.916Z,39.93
2023-05-10T12:06:22.350Z,40.22
2023-05-10T12:08:53.584Z,39.87
2023-05-10T12:11:21.887Z,38.85
2023-05-10T12:13:48.528Z,41.26
2023-05-10T12:16:20.288Z,39.13
2023-05-10T12:18:50.049Z,39.79
2023-05-10T12:21:16.704Z,39.16
2023-05-10T12:23:45.982Z,38.81
2023-05-10T12:26:12.592Z,39.27
2023-05-10T12:28:40.617Z,37.31
2023-05-10T12:31:07.817Z,37.33
2023-05-10T12:33:43.491Z,37.52
2023-05-10T12:36:24.924Z,36.48
2023-05-10T12:38:53.282Z,36.83
2023-05-10T12:41:19.951Z,36.36
2023-05-10T12:43:47.330Z,36.23
2023-05-10T12:46:15.765Z,37.75
2023-05-10T12:48:43.846Z,37.99
2023-05-10T12:51:12.794Z,37.70
2023-05-10T12:53:42.551Z,34.57
2023-05-10T12:56:11.183Z,34.55
2023-05-10T12:58:37.824Z,36.32
2023-05-10T13:01:05.877Z,37.19
2023-05-10T13:03:32.559Z,37.96
2023-05-10T13:05:59.205Z,37.93
2023-05-10T13:08:25.948Z,36.36
2023-05-10T13:10:52.717Z,36.04
2023-05-10T13:13:19.304Z,37.24
2023-05-10T13:15:45.957Z,38.38
2023-05-10T13:18:12.621Z,36.29
2023-05-10T13:20:39.350Z,39.54
2023-05-10T13:23:06.071Z,38.15
2023-05-10T13:25:32.659Z,39.58
2023-05-10T13:27:59.158Z,38.90
2023-05-10T13:30:26.088Z,38.77
2023-05-10T13:32:52.692Z,36.71
2023-05-10T13:35:19.319Z,36.98
2023-05-10T13:37:45.822Z,37.26
2023-05-10T13:40:12.625Z,37.13
2023-05-10T13:42:39.257Z,38.57
2023-05-10T13:45:06.488Z,35.99
2023-05-10T13:47:33.123Z,37.00
2023-05-10T13:49:59.751Z,38.62
2023-05-10T13:52:27.332Z,37.73
2023-05-10T13:54:55.963Z,36.50
2023-05-10T13:57:23.109Z,36.66
2023-05-10T13:59:49.957Z,37.60
2023-05-10T14:02:16.513Z,36.53
2023-05-10T14:04:43.038Z,37.32
2023-05-10T14:07:09.547Z,38.58
2023-05-10T14:09:36.034Z,37.14
2023-05-10T14:12:03.055Z,37.72
2023-05-10T14:14:30.461Z,37.21
2023-05-10T14:16:57.236Z,35.49
2023-05-10T14:19:23.841Z,36.11
2023-05-10T14:21:50.483Z,37.56
2023-05-10T14:24:17.016Z,38.92
2023-05-10T14:26:43.566Z,38.85
2023-05-10T14:29:12.252Z,38.78
2023-05-10T14:31:39.322Z,36.99
2023-05-10T14:34:06.804Z,35.40
2023-05-10T14:36:33.584Z,36.13
2023-05-10T14:39:00.296Z,36.80
2023-05-10T14:41:27.005Z,35.74
2023-05-10T14:43:54.154Z,36.73
2023-05-10T14:46:20.874Z,40.93
2023-05-10T14:48:47.548Z,42.72
2023-05-10T14:51:14.167Z,42.93
2023-05-10T14:53:40.678Z,43.71
2023-05-10T14:56:08.062Z,43.46
2023-05-10T14:58:34.696Z,44.33
2023-05-10T15:01:01.754Z,46.51
2023-05-10T15:03:29.112Z,46.68
2023-05-10T15:05:58.503Z,47.42
2023-05-10T15:08:28.817Z,48.95
2023-05-10T15:10:56.892Z,47.93
2023-05-10T15:13:23.479Z,47.28
2023-05-10T15:15:50.004Z,46.89
2023-05-10T15:18:16.638Z,47.24
2023-05-10T15:20:43.268Z,48.97
2023-05-10T15:23:09.855Z,51.01
2023-05-10T15:25:38.173Z,50.88
2023-05-10T15:28:07.975Z,51.71
2023-05-10T15:30:34.518Z,51.46
2023-05-10T15:33:01.143Z,52.61
2023-05-10T15:35:27.973Z,52.24
2023-05-10T15:37:54.506Z,51.14
2023-05-10T15:40:21.132Z,52.03
2023-05-10T15:42:47.777Z,52.53
2023-05-10T15:45:14.569Z,51.91
2023-05-10T15:47:41.343Z,52.95
2023-05-10T15:50:08.495Z,53.42
2023-05-10T15:52:36.067Z,53.91
2023-05-10T15:55:03.576Z,54.55
2023-05-10T15:57:30.339Z,54.22
2023-05-10T15:59:56.886Z,54.93
2023-05-10T16:02:23.668Z,54.69
2023-05-10T16:04:50.349Z,54.47
2023-05-10T16:07:16.915Z,55.17
2023-05-10T16:09:43.509Z,54.69
2023-05-10T16:12:10.102Z,54.97
2023-05-10T16:14:36.726Z,55.49
2023-05-10T16:17:04.306Z,55.88
2023-05-10T16:19:31.278Z,55.76
2023-05-10T16:21:57.945Z,54.95
2023-05-10T16:24:25.155Z,56.15
2023-05-10T16:26:52.063Z,54.92
2023-05-10T16:29:18.602Z,55.74
2023-05-10T16:31:45.357Z,56.15
2023-05-10T16:34:12.043Z,55.87
2023-05-10T16:36:38.894Z,55.68
2023-05-10T16:39:05.496Z,55.90
2023-05-10T16:41:35.385Z,56.58
2023-05-10T16:44:03.634Z,56.72
2023-05-10T16:46:30.234Z,56.77
2023-05-10T16:48:56.848Z,57.59
2023-05-10T16:51:23.397Z,57.21
2023-05-10T16:53:49.975Z,57.28
2023-05-10T16:56:18.360Z,56.82
2023-05-10T16:58:44.919Z,56.92
2023-05-10T17:01:11.556Z,57.14
2023-05-10T17:03:38.272Z,56.64
2023-05-10T17:06:06.088Z,56.29
2023-05-10T17:08:33.413Z,57.16
2023-05-10T17:11:03.980Z,57.11
2023-05-10T17:13:30.991Z,56.84
2023-05-10T17:15:57.691Z,57.71
2023-05-10T17:18:24.405Z,57.68
2023-05-10T17:20:55.563Z,58.35
2023-05-10T17:23:22.073Z,58.65
2023-05-10T17:25:48.630Z,57.86
2023-05-10T17:28:15.308Z,58.41
2023-05-10T17:30:41.849Z,59.59
2023-05-10T17:33:08.427Z,59.38
2023-05-10T17:35:35.025Z,60.27
2023-05-10T17:38:01.600Z,60.94
2023-05-10T17:40:28.295Z,60.75
2023-05-10T17:42:54.876Z,59.77
2023-05-10T17:45:21.826Z,60.03
2023-05-10T17:47:48.564Z,60.98
2023-05-10T17:50:15.712Z,60.65
2023-05-10T17:52:42.305Z,61.09
2023-05-10T17:55:09.064Z,62.00
2023-05-10T17:57:38.064Z,63.66
2023-05-10T18:00:06.486Z,64.68
2023-05-10T18:02:33.251Z,64.63
2023-05-10T18:05:01.332Z,65.05
2023-05-10T18:07:29.971Z,65.56
2023-05-10T18:09:59.522Z,66.27
2023-05-10T18:12:26.184Z,66.45
2023-05-10T18:14:52.772Z,66.51
2023-05-10T18:17:19.477Z,65.80
2023-05-10T18:19:46.009Z,65.74
2023-05-10T18:22:12.679Z,66.87
2023-05-10T18:24:41.231Z,64.88
2023-05-10T18:27:11.334Z,64.37
2023-05-10T18:29:38.127Z,65.81
2023-05-10T18:32:05.068Z,65.37
2023-05-10T18:34:31.629Z,65.49
2023-05-10T18:36:58.235Z,64.70
2023-05-10T18:39:25.055Z,64.53
2023-05-10T18:41:51.864Z,64.93
2023-05-10T18:44:19.133Z,64.61
2023-05-10T18:46:46.312Z,65.45
2023-05-10T18:49:13.144Z,65.81
2023-05-10T18:51:39.759Z,65.31
2023-05-10T18:54:06.388Z,66.08
2023-05-10T18:56:35.163Z,66.23
2023-05-10T18:59:01.814Z,65.89
2023-05-10T19:01:28.469Z,66.88
2023-05-10T19:03:55.085Z,66.77
2023-05-10T19:06:24.293Z,67.01
2023-05-10T19:08:50.913Z,67.41
2023-05-10T19:11:22.012Z,68.13
2023-05-10T19:13:48.835Z,68.52
2023-05-10T19:16:16.848Z,68.11
2023-05-10T19:18:44.481Z,68.18
2023-05-10T19:21:11.504Z,67.84
2023-05-10T19:23:42.950Z,68.27
2023-05-10T19:26:10.905Z,68.40
2023-05-10T19:28:37.773Z,68.42
2023-05-10T19:31:04.659Z,68.12
2023-05-10T19:33:31.642Z,68.98
2023-05-10T19:35:58.263Z,68.59
2023-05-10T19:38:25.570Z,69.20
2023-05-10T19:40:59.368Z,69.24
2023-05-10T19:43:27.694Z,69.82
2023-05-10T19:45:55.003Z,69.59
2023-05-10T19:48:21.624Z,70.02
2023-05-10T19:50:48.145Z,69.88
2023-05-10T19:53:14.765Z,70.46
2023-05-10T19:55:41.516Z,71.75
2023-05-10T19:58:08.194Z,70.20
2023-05-10T20:00:34.979Z,70.74
2023-05-10T20:03:02.992Z,71.36
2023-05-10T20:05:29.528Z,70.74
2023-05-10T20:07:56.079Z,71.47
2023-05-10T20:10:24.675Z,71.03
2023-05-10T20:12:52.893Z,72.14
2023-05-10T20:15:22.159Z,72.33
2023-05-10T20:17:51.081Z,72.18
2023-05-10T20:20:18.369Z,72.29
2023-05-10T20:22:45.678Z,73.27
2023-05-10T20:25:13.649Z,72.88
2023-05-10T20:27:40.364Z,73.39
2023-05-10T20:30:09.638Z,74.37
2023-05-10T20:32:37.220Z,74.68
2023-05-10T20:35:04.238Z,76.19
2023-05-10T20:37:31.284Z,76.53
2023-05-10T20:39:57.953Z,76.20
2023-05-10T20:42:24.610Z,76.10
2023-05-10T20:44:51.188Z,77.80
2023-05-10T20:47:18.093Z,78.87
2023-05-10T20:49:44.641Z,79.78
2023-05-10T20:52:11.298Z,79.54
2023-05-10T20:54:37.840Z,80.61
2023-05-10T20:57:04.384Z,80.96
2023-05-10T20:59:30.889Z,79.16
2023-05-10T21:01:57.914Z,78.22
2023-05-10T21:04:25.772Z,78.18
2023-05-10T21:06:53.062Z,77.89
2023-05-10T21:09:19.755Z,77.99
2023-05-10T21:11:46.475Z,78.65
2023-05-10T21:14:13.129Z,78.09
2023-05-10T21:16:39.999Z,77.98
2023-05-10T21:19:07.597Z,77.97
2023-05-10T21:21:34.524Z,78.01
2023-05-10T21:24:01.212Z,78.18
2023-05-10T21:26:27.770Z,77.91
2023-05-10T21:28:54.463Z,78.72
2023-05-10T21:31:21.405Z,79.39
2023-05-10T21:33:47.992Z,78.84
2023-05-10T21:36:14.601Z,79.07
2023-05-10T21:38:44.183Z,79.29
2023-05-10T21:41:11.071Z,80.15
2023-05-10T21:43:37.645Z,81.14
2023-05-10T21:46:04.749Z,82.39
2023-05-10T21:48:31.410Z,81.29
2023-05-10T21:50:58.878Z,81.73
2023-05-10T21:53:25.465Z,80.69
2023-05-10T21:55:52.173Z,82.41
2023-05-10T21:58:18.936Z,80.62
2023-05-10T22:00:46.012Z,80.63
2023-05-10T22:03:12.726Z,82.43
2023-05-10T22:05:39.424Z,81.54
2023-05-10T22:08:07.014Z,82.82
2023-05-10T22:10:33.928Z,83.88
2023-05-10T22:13:00.708Z,82.69
2023-05-10T22:15:27.990Z,82.43
2023-05-10T22:17:54.544Z,82.59
2023-05-10T22:20:21.147Z,82.47
2023-05-10T22:22:47.746Z,82.57
2023-05-10T22:25:14.516Z,84.79
2023-05-10T22:27:41.412Z,85.95
2023-05-10T22:30:08.684Z,84.95
2023-05-10T22:32:35.246Z,85.74
2023-05-10T22:35:02.269Z,86.26
2023-05-10T22:37:28.800Z,87.23
2023-05-10T22:39:55.311Z,87.27
2023-05-10T22:42:21.873Z,86.40
2023-05-10T22:44:48.402Z,87.46
2023-05-10T22:47:14.930Z,89.15
2023-05-10T22:49:41.465Z,88.98
2023-05-10T22:52:08.144Z,89.01
2023-05-10T22:54:36.250Z,87.72
2023-05-10T22:57:03.123Z,87.69
2023-05-10T22:59:29.676Z,87.58
2023-05-10T23:01:56.278Z,88.26
2023-05-10T23:04:22.906Z,88.66
2023-05-10T23:06:49.487Z,89.41
2023-05-10T23:09:16.419Z,87.72
2023-05-10T23:11:42.975Z,86.25
2023-05-10T23:14:09.495Z,86.65
2023-05-10T23:16:36.243Z,87.49
2023-05-10T23:19:02.920Z,87.43
2023-05-10T23:21:31.898Z,87.23
2023-05-10T23:23:59.962Z,88.07
2023-05-10T23:26:27.455Z,88.34
2023-05-10T23:28:54.027Z,88.46
2023-05-10T23:31:21.054Z,88.50
2023-05-10T23:33:47.626Z,88.21
2023-05-10T23:36:14.165Z,88.62
2023-05-10T23:38:40.684Z,87.94
2023-05-10T23:41:07.173Z,88.52
2023-05-10T23:43:33.676Z,88.45
2023-05-10T23:46:01.587Z,88.99
2023-05-10T23:48:28.261Z,89.51
2023-05-10T23:50:54.821Z,89.63
2023-05-10T23:53:21.416Z,89.30
2023-05-10T23:55:47.957Z,90.26
2023-05-10T23:58:14.483Z,90.97
